x

Portland 12 Nm Southeast Of Portland,me (44007) Wave Buoy

4:50 - Mon 21st Aug 2017 All times are EDT. -4 hours from GMT.

  • Sig Wave height 2.0ft
  • Swell Direction
  • Peak Period 3s
  • Average Period 4s
  • Wind
    13mph, 16mph gusts
  • Sea Temp 63°f
  • Air Temp 68°f
  • Sea Pressure 1017mb
  • Portland 12 Nm Southeast Of Portland,me
  • Portland 12 Nm Southeast Of Portland,me

More Historic Weather Station data

Upgrade to MSW Pro to gain access to the past 30 days of data for over 8000 Wavebouys and Weather Stations around the globe.

Join

Comparision Forecast

View Surf forecast
   
lun. 08/21 4:50 2ft 3s 4s 13 16 mph 1017mb 63f 68f
3:50 2ft 3s 4s 13 16 mph 1017.3mb 63f 68f
2:50 1.6ft 10s 4s 13 16 mph 1017.4mb 63f 67f
1:50 1.6ft 6s 5s 13 13 mph 1018.1mb 63f 67f
12:50 1.6ft 6s 6s 11 13 mph 1018.7mb 64f 66f
11:50 1.6ft 6s 6s 7 9 mph 1019.1mb 64f 66f
10:50 1.3ft 6s 6s 7 9 mph 1019.3mb 63f 65f
8:50 1.6ft 7s 6s 4 7 mph 1019.9mb 63f 63f
7:50 1.3ft 7s 6s  -  2 mph 1020.1mb 63f 64f
6:50 1.3ft 7s 5s 4 7 mph 1020.2mb 62f 62f
5:50 1.3ft 7s 6s 7 7 mph 1019.7mb 63f 63f
4:50 1.6ft 7s 6s 7 7 mph 1019.1mb 63f 63f
3:50 1.6ft 8s 6s 4 4 mph 1018.8mb 63f 63f
2:50 1.6ft 7s 6s 9 9 mph 1018.6mb 63f 64f
1:50 2ft 7s 6s 9 9 mph 1018.3mb 63f 65f
12:50 2ft 7s 6s 9 9 mph 1018.1mb 64f 65f
dim. 08/20 11:50 2.5ft 7s 6s 7 7 mph 1017.5mb 64f 66f
10:50 2ft 6s 6s 9 11 mph 1017.1mb 63f 66f
9:50 2ft 6s 6s 7 7 mph 1016.9mb 63f 68f
8:50 1.6ft 6s 5s 7 9 mph 1016.2mb 63f 71f
6:50 1.6ft 7s 5s 9 9 mph 1015.3mb 63f 71f
5:50 1.6ft 7s 5s 11 13 mph 1014.6mb 64f 72f
4:50 1.6ft 7s 5s 11 13 mph 1014.1mb 65f 73f
3:50 2ft 7s 5s 11 13 mph 1013.8mb 65f 73f
2:50 2.5ft 7s 6s 7 11 mph 1013.5mb 65f 73f
1:50 2.5ft 8s 5s 4 4 mph 1013.3mb 64f 71f
12:50 2.5ft 7s 5s 11 11 mph 1012.6mb 64f 71f
11:50 2.5ft 7s 6s 13 16 mph 1011.9mb 64f 72f
10:50 2.5ft 7s 6s 2 4 mph 1011.8mb 63f 68f
9:50 3ft 6s 6s 4 7 mph 1011.5mb 63f 65f
8:50 2.5ft 7s 5s 7 7 mph 1011.6mb 62f 64f
7:50 2.5ft 7s 5s 4 4 mph 1011.2mb 61f 64f
6:50 2.5ft 6s 5s 2 4 mph 1010.9mb 61f 63f
5:50 2.5ft 6s 5s 2 2 mph 1010.4mb 61f 63f
4:50 2.5ft 6s 5s 2 4 mph 1009.9mb 61f 65f
3:50 2.5ft 7s 5s 7 7 mph 1009.5mb 61f 63f
2:50 2.5ft 6s 5s 9 9 mph 1009.4mb 61f 63f
1:50 2.5ft 7s 5s 9 11 mph 1009.3mb 61f 63f
12:50 2.5ft 7s 5s 11 11 mph 1009.4mb 61f 63f
sam. 08/19 11:50 2.5ft 8s 5s 9 9 mph 1009.2mb 61f 63f
10:50 2.5ft 7s 5s 7 7 mph 1009mb 62f 62f
9:50 2.5ft 7s 5s 4 4 mph 1009mb 62f 62f
8:50 2.5ft 7s 5s 4 4 mph 1008.8mb 62f 62f
7:50 2.5ft 6s 5s 9 9 mph 1008.8mb 62f 63f
6:50 2.5ft 6s 5s 9 9 mph 1008.4mb 62f 64f
5:50 2.5ft 7s 5s 7 9 mph 1008.3mb 63f 64f
4:50 3ft 6s 5s 9 9 mph 1008.3mb 63f 64f
3:50 2.5ft 6s 5s 9 11 mph 1008.4mb 63f 64f
2:50 2.5ft 6s 5s 9 9 mph 1008.6mb 63f 64f
1:50 3ft 7s 5s 7 7 mph 1008.7mb 64f 65f
12:50 2.5ft 6s 5s 2 2 mph 1008.8mb 62f 65f
11:50 3ft 6s 5s 2 2 mph 1009.1mb 62f 64f
10:50 3ft 7s 5s 7 7 mph 1009mb 61f 62f
9:50 3.5ft 6s 5s 4 4 mph 1008.9mb 61f 61f
8:50 3.5ft 7s 5s 9 11 mph 1008.6mb 61f 61f
7:50 3.5ft 6s 5s 11 13 mph 1008.8mb 61f 61f
6:50 3.5ft 6s 5s 13 16 mph 1008.7mb 62f 60f
5:50 3.5ft 6s 5s 13 16 mph 1008.5mb 62f 60f
4:50 4ft 6s 6s 13 16 mph 1007.9mb 62f 61f
3:50 3.5ft 7s 5s 11 11 mph 1008.2mb 62f 61f
2:50 3ft 6s 5s 11 13 mph 1008.3mb 62f 61f
1:50 3.5ft 6s 5s 11 13 mph 1008.6mb 62f 61f
12:50 3.5ft 6s 5s 11 13 mph 1008.8mb 63f 62f
ven. 08/18 11:50 3.5ft 6s 5s 7 13 mph 1008.8mb 63f 64f
10:50 3.5ft 6s 5s 9 11 mph 1008.9mb 63f 65f
9:50 3.5ft 5s 4s 9 13 mph 1009.1mb 63f 66f
8:50 4ft 5s 4s 13 16 mph 1009.3mb 62f 66f
7:50 4ft 5s 4s 16 18 mph 1009.7mb 62f 66f
6:50 4ft 5s 4s 16 20 mph 1009.9mb 62f 66f
5:50 4ft 4s 4s 16 18 mph 1010.2mb 62f 65f
4:50 4ft 4s 4s 22 25 mph 1010.6mb 62f 64f
3:50 3ft 3s 4s 22 27 mph 1011.1mb 63f 63f
2:50 2.5ft 8s 4s 20 25 mph 1012mb 64f 64f
1:50 2ft 8s 4s 18 20 mph 1012.9mb 64f 64f
12:50 1.6ft 8s 4s 16 18 mph 1013.7mb 64f 64f
11:50 1.6ft 8s 5s 11 13 mph 1014.4mb 64f 64f
10:50 1.6ft 8s 5s 4 4 mph 1014.7mb 64f 64f
9:50 1.6ft 8s 5s 4 4 mph 1014.5mb 65f 64f
8:50 1.6ft 8s 5s 4 7 mph 1014.4mb 65f 65f
7:50 1.6ft 9s 5s 9 9 mph 1014.4mb 64f 63f
6:50 2ft 8s 6s 9 11 mph 1014.3mb 65f 64f
5:50 2ft 9s 6s 9 9 mph 1014.5mb 64f 64f
4:50 2ft 8s 6s 4 7 mph 1014.6mb 64f 64f
3:50 2ft 9s 6s 2 4 mph 1015.3mb 64f 64f
2:50 2ft 8s 6s 4 4 mph 1015.2mb 65f 65f
1:50 2ft 11s 6s 2 4 mph 1015.5mb 65f 65f
12:50 2ft 9s 6s 2 4 mph 1015.6mb 65f 66f
jeu. 08/17 11:50 2ft 8s 6s 4 7 mph 1015.5mb 65f 66f
10:50 2ft 9s 6s 2 4 mph 1015.3mb 65f 68f